Time,TemperatureF,DewpointF,PressureIn,WindDirection,WindDirectionDegrees,WindSpeedMPH,WindSpeedGustMPH,Humidity,HourlyPrecipIn,Conditions,Clouds,dailyrainin,SoftwareType,DateUTC
2013-05-14 00:00:00,63.3,47.8,29.95,East,98,9.0,9.0,57,0.00,,,0.00,VWS V14.01,2013-05-13 22:00:00,
2013-05-14 00:01:00,63.3,48.3,29.95,East,84,7.0,9.0,58,0.00,,,0.00,VWS V14.01,2013-05-13 22:01:00,
2013-05-14 00:06:00,63.7,48.2,29.95,East,99,6.0,11.0,57,0.00,,,0.00,VWS V14.01,2013-05-13 22:06:00,
2013-05-14 00:10:00,63.5,47.5,29.95,East,90,9.0,13.0,56,0.00,,,0.00,VWS V14.01,2013-05-13 22:10:00,
2013-05-14 00:11:00,63.5,48.0,29.95,ENE,70,4.0,13.0,57,0.00,,,0.00,VWS V14.01,2013-05-13 22:11:00,
2013-05-14 00:16:00,63.4,47.9,29.95,ESE,107,8.0,9.0,57,0.00,,,0.00,VWS V14.01,2013-05-13 22:16:00,
2013-05-14 00:20:00,63.6,47.6,29.95,East,93,6.0,10.0,56,0.00,,,0.00,VWS V14.01,2013-05-13 22:20:00,
2013-05-14 00:21:00,63.5,47.5,29.95,East,81,6.0,10.0,56,0.00,,,0.00,VWS V14.01,2013-05-13 22:21:00,
2013-05-14 00:26:00,63.6,47.6,29.95,East,100,9.0,9.0,56,0.00,,,0.00,VWS V14.01,2013-05-13 22:26:00,
2013-05-14 00:30:00,63.4,47.9,29.95,East,90,5.0,10.0,57,0.00,,,0.00,VWS V14.01,2013-05-13 22:30:00,
2013-05-14 00:31:00,63.4,47.5,29.95,East,90,8.0,10.0,56,0.00,,,0.00,VWS V14.01,2013-05-13 22:31:00,
2013-05-14 00:36:00,63.4,47.5,29.95,ESE,108,4.0,8.0,56,0.00,,,0.00,VWS V14.01,2013-05-13 22:36:00,
2013-05-14 00:40:00,63.4,47.5,29.95,East,96,6.0,10.0,56,0.00,,,0.00,VWS V14.01,2013-05-13 22:40:00,
2013-05-14 00:41:00,63.4,47.5,29.95,East,98,3.0,10.0,56,0.00,,,0.00,VWS V14.01,2013-05-13 22:41:00,
2013-05-14 00:45:00,63.5,47.5,29.95,East,88,6.0,9.0,56,0.00,,,0.00,VWS V14.01,2013-05-13 22:45:00,
2013-05-14 00:50:00,63.2,47.7,29.95,ENE,77,7.0,10.0,57,0.00,,,0.00,VWS V14.01,2013-05-13 22:50:00,
2013-05-14 00:55:00,63.1,47.6,29.95,East,98,7.0,10.0,57,0.00,,,0.00,VWS V14.01,2013-05-13 22:55:00,
2013-05-14 01:00:00,63.0,47.5,29.95,ENE,70,5.0,10.0,57,0.00,,,0.00,VWS V14.01,2013-05-13 23:00:00,
2013-05-14 01:05:00,63.0,47.5,29.95,East,84,6.0,12.0,57,0.00,,,0.00,VWS V14.01,2013-05-13 23:05:00,
2013-05-14 01:10:00,62.8,47.4,29.95,East,86,7.0,12.0,57,0.00,,,0.00,VWS V14.01,2013-05-13 23:10:00,
2013-05-14 01:15:00,62.7,47.3,29.95,East,87,6.0,9.0,57,0.00,,,0.00,VWS V14.01,2013-05-13 23:15:00,
2013-05-14 01:20:00,62.7,47.3,29.95,East,79,6.0,10.0,57,0.00,,,0.00,VWS V14.01,2013-05-13 23:20:00,
2013-05-14 01:25:00,62.8,47.4,29.95,East,91,10.0,10.0,57,0.00,,,0.00,VWS V14.01,2013-05-13 23:25:00,
2013-05-14 01:30:00,62.9,47.5,29.95,East,82,9.0,11.0,57,0.00,,,0.00,VWS V14.01,2013-05-13 23:30:00,
2013-05-14 01:35:00,62.9,47.5,29.95,East,86,6.0,10.0,57,0.00,,,0.00,VWS V14.01,2013-05-13 23:35:00,
2013-05-14 01:40:00,62.8,47.4,29.95,ENE,70,8.0,10.0,57,0.00,,,0.00,VWS V14.01,2013-05-13 23:40:00,
2013-05-14 01:45:00,62.9,47.5,29.94,ENE,68,9.0,9.0,57,0.00,,,0.00,VWS V14.01,2013-05-13 23:45:00,
2013-05-14 01:50:00,63.2,47.3,29.95,ENE,76,5.0,9.0,56,0.00,,,0.00,VWS V14.01,2013-05-13 23:50:00,
2013-05-14 01:55:00,63.1,47.2,29.94,ENE,71,4.0,7.0,56,0.00,,,0.00,VWS V14.01,2013-05-13 23:55:00,
2013-05-14 02:00:00,63.1,47.2,29.95,ENE,71,7.0,7.0,56,0.00,,,0.00,VWS V14.01,2013-05-14 00:00:00,
2013-05-14 02:05:00,63.1,47.2,29.94,ENE,78,4.0,7.0,56,0.00,,,0.00,VWS V14.01,2013-05-14 00:05:00,
2013-05-14 02:10:00,63.2,46.8,29.94,ENE,66,7.0,8.0,55,0.00,,,0.00,VWS V14.01,2013-05-14 00:10:00,
2013-05-14 02:15:00,63.4,47.0,29.94,ENE,73,5.0,11.0,55,0.00,,,0.00,VWS V14.01,2013-05-14 00:15:00,
2013-05-14 02:20:00,63.2,46.3,29.94,East,80,9.0,12.0,54,0.00,,,0.00,VWS V14.01,2013-05-14 00:20:00,
2013-05-14 02:25:00,63.2,46.3,29.94,East,84,10.0,10.0,54,0.00,,,0.00,VWS V14.01,2013-05-14 00:25:00,
2013-05-14 02:30:00,63.0,45.6,29.94,East,84,8.0,10.0,53,0.00,,,0.00,VWS V14.01,2013-05-14 00:30:00,
2013-05-14 02:35:00,63.0,45.6,29.94,ENE,63,9.0,10.0,53,0.00,,,0.00,VWS V14.01,2013-05-14 00:35:00,
2013-05-14 02:40:00,63.0,45.1,29.94,East,83,8.0,11.0,52,0.00,,,0.00,VWS V14.01,2013-05-14 00:40:00,
2013-05-14 02:45:00,62.9,44.5,29.94,ENE,76,10.0,11.0,51,0.00,,,0.00,VWS V14.01,2013-05-14 00:45:00,
2013-05-14 02:50:00,62.9,44.5,29.94,East,81,8.0,14.0,51,0.00,,,0.00,VWS V14.01,2013-05-14 00:50:00,
2013-05-14 02:55:00,62.7,44.3,29.94,East,86,8.0,9.0,51,0.00,,,0.00,VWS V14.01,2013-05-14 00:55:00,
2013-05-14 03:00:00,62.6,44.2,29.94,East,88,7.0,10.0,51,0.00,,,0.00,VWS V14.01,2013-05-14 01:00:00,
2013-05-14 03:05:00,62.5,44.2,29.94,East,99,6.0,8.0,51,0.00,,,0.00,VWS V14.01,2013-05-14 01:05:00,
2013-05-14 03:10:00,62.3,44.0,29.94,ENE,78,7.0,9.0,51,0.00,,,0.00,VWS V14.01,2013-05-14 01:10:00,
2013-05-14 03:15:00,62.0,43.7,29.94,ENE,74,7.0,8.0,51,0.00,,,0.00,VWS V14.01,2013-05-14 01:15:00,
2013-05-14 03:20:00,61.3,44.0,29.94,ENE,69,3.0,8.0,53,0.00,,,0.00,VWS V14.01,2013-05-14 01:20:00,
2013-05-14 03:25:00,61.0,44.2,29.94,ENE,67,4.0,7.0,54,0.00,,,0.00,VWS V14.01,2013-05-14 01:25:00,
2013-05-14 03:30:00,60.8,44.1,29.94,ENE,67,3.0,7.0,54,0.00,,,0.00,VWS V14.01,2013-05-14 01:30:00,
2013-05-14 03:35:00,60.6,44.4,29.94,ENE,71,5.0,7.0,55,0.00,,,0.00,VWS V14.01,2013-05-14 01:35:00,
2013-05-14 03:40:00,61.4,44.1,29.94,ENE,68,3.0,7.0,53,0.00,,,0.00,VWS V14.01,2013-05-14 01:40:00,
2013-05-14 03:45:00,61.4,43.6,29.94,ENE,68,3.0,5.0,52,0.00,,,0.00,VWS V14.01,2013-05-14 01:45:00,
2013-05-14 03:50:00,61.3,43.5,29.94,ENE,68,1.0,5.0,52,0.00,,,0.00,VWS V14.01,2013-05-14 01:50:00,
2013-05-14 03:55:00,61.2,43.5,29.94,ENE,68,0.0,4.0,52,0.00,,,0.00,VWS V14.01,2013-05-14 01:55:00,
2013-05-14 04:00:00,60.8,43.6,29.94,ENE,68,0.0,4.0,53,0.00,,,0.00,VWS V14.01,2013-05-14 02:00:00,
2013-05-14 04:05:00,60.4,43.7,29.94,ENE,67,3.0,4.0,54,0.00,,,0.00,VWS V14.01,2013-05-14 02:05:00,
2013-05-14 04:10:00,59.8,44.5,29.94,ENE,67,3.0,5.0,57,0.00,,,0.00,VWS V14.01,2013-05-14 02:10:00,
2013-05-14 04:15:00,59.5,44.3,29.94,ENE,65,3.0,5.0,57,0.00,,,0.00,VWS V14.01,2013-05-14 02:15:00,
2013-05-14 04:20:00,59.4,44.6,29.94,NE,56,0.0,5.0,58,0.00,,,0.00,VWS V14.01,2013-05-14 02:20:00,
2013-05-14 04:25:00,59.2,44.5,29.94,NE,56,3.0,3.0,58,0.00,,,0.00,VWS V14.01,2013-05-14 02:25:00,
2013-05-14 04:30:00,59.8,43.6,29.94,NE,56,1.0,3.0,55,0.00,,,0.00,VWS V14.01,2013-05-14 02:30:00,
2013-05-14 04:35:00,60.0,43.3,29.94,NE,56,4.0,4.0,54,0.00,,,0.00,VWS V14.01,2013-05-14 02:35:00,
2013-05-14 04:40:00,60.4,42.2,29.94,NE,44,7.0,8.0,51,0.00,,,0.00,VWS V14.01,2013-05-14 02:40:00,
2013-05-14 04:45:00,61.0,41.7,29.94,NE,55,8.0,9.0,49,0.00,,,0.00,VWS V14.01,2013-05-14 02:45:00,
2013-05-14 04:50:00,60.8,41.5,29.94,NE,44,8.0,9.0,49,0.00,,,0.00,VWS V14.01,2013-05-14 02:50:00,
2013-05-14 04:55:00,60.5,41.8,29.94,NE,51,3.0,7.0,50,0.00,,,0.00,VWS V14.01,2013-05-14 02:55:00,
2013-05-14 05:00:00,59.9,41.8,29.94,ENE,71,4.0,7.0,51,0.00,,,0.00,VWS V14.01,2013-05-14 03:00:00,
2013-05-14 05:05:00,59.7,41.6,29.94,ENE,59,3.0,5.0,51,0.00,,,0.00,VWS V14.01,2013-05-14 03:05:00,
2013-05-14 05:10:00,59.5,41.9,29.95,ENE,59,0.0,5.0,52,0.00,,,0.00,VWS V14.01,2013-05-14 03:10:00,
2013-05-14 05:15:00,59.0,41.9,29.95,ENE,59,3.0,3.0,53,0.00,,,0.00,VWS V14.01,2013-05-14 03:15:00,
2013-05-14 05:20:00,58.0,41.9,29.95,ENE,59,4.0,4.0,55,0.00,,,0.00,VWS V14.01,2013-05-14 03:20:00,
2013-05-14 05:25:00,57.3,42.2,29.95,NE,39,3.0,7.0,57,0.00,,,0.00,VWS V14.01,2013-05-14 03:25:00,
2013-05-14 05:30:00,57.3,42.2,29.95,NNE,28,4.0,7.0,57,0.00,,,0.00,VWS V14.01,2013-05-14 03:30:00,
2013-05-14 05:35:00,57.5,42.4,29.95,NNE,30,4.0,5.0,57,0.00,,,0.00,VWS V14.01,2013-05-14 03:35:00,
2013-05-14 05:40:00,57.2,42.6,29.95,NNE,29,3.0,5.0,58,0.00,,,0.00,VWS V14.01,2013-05-14 03:40:00,
2013-05-14 05:45:00,56.7,43.0,29.95,NNE,31,4.0,6.0,60,0.00,,,0.00,VWS V14.01,2013-05-14 03:45:00,
2013-05-14 05:50:00,56.9,42.7,29.95,NNE,33,3.0,6.0,59,0.00,,,0.00,VWS V14.01,2013-05-14 03:50:00,
2013-05-14 05:55:00,56.4,42.7,29.95,NNE,32,5.0,6.0,60,0.00,,,0.00,VWS V14.01,2013-05-14 03:55:00,
2013-05-14 06:00:00,56.7,42.5,29.95,NNE,32,4.0,6.0,59,0.00,,,0.00,VWS V14.01,2013-05-14 04:00:00,
2013-05-14 06:01:00,56.8,42.6,29.95,NE,36,5.0,6.0,59,0.00,,,0.00,VWS V14.01,2013-05-14 04:01:00,
2013-05-14 06:06:00,57.5,41.9,29.95,NE,39,1.0,4.0,56,0.00,,,0.00,VWS V14.01,2013-05-14 04:06:00,
2013-05-14 06:10:00,58.3,41.8,29.95,NE,46,2.0,4.0,54,0.00,,,0.00,VWS V14.01,2013-05-14 04:10:00,
2013-05-14 06:11:00,58.1,41.6,29.95,NE,40,2.0,4.0,54,0.00,,,0.00,VWS V14.01,2013-05-14 04:11:00,
2013-05-14 06:16:00,59.0,41.4,29.96,NE,46,0.0,4.0,52,0.00,,,0.00,VWS V14.01,2013-05-14 04:16:00,
2013-05-14 06:20:00,58.0,41.9,29.96,NNE,28,5.0,6.0,55,0.00,,,0.00,VWS V14.01,2013-05-14 04:20:00,
2013-05-14 06:21:00,58.2,42.1,29.96,NNE,32,4.0,6.0,55,0.00,,,0.00,VWS V14.01,2013-05-14 04:21:00,
2013-05-14 06:26:00,57.2,42.6,29.96,NNE,26,4.0,6.0,58,0.00,,,0.00,VWS V14.01,2013-05-14 04:26:00,
2013-05-14 06:30:00,57.1,42.9,29.97,NNE,30,5.0,7.0,59,0.00,,,0.00,VWS V14.01,2013-05-14 04:30:00,
2013-05-14 06:31:00,57.0,42.8,29.97,NNE,29,5.0,7.0,59,0.00,,,0.00,VWS V14.01,2013-05-14 04:31:00,
2013-05-14 06:36:00,57.2,43.5,29.97,NE,37,3.0,5.0,60,0.00,,,0.00,VWS V14.01,2013-05-14 04:36:00,
2013-05-14 06:40:00,57.4,43.2,29.97,NE,37,3.0,5.0,59,0.00,,,0.00,VWS V14.01,2013-05-14 04:40:00,
2013-05-14 06:41:00,57.4,43.2,29.97,NE,37,4.0,5.0,59,0.00,,,0.00,VWS V14.01,2013-05-14 04:41:00,
2013-05-14 06:46:00,57.6,43.4,29.97,NE,36,3.0,5.0,59,0.00,,,0.00,VWS V14.01,2013-05-14 04:46:00,
2013-05-14 06:50:00,58.3,43.6,29.97,NE,36,2.0,5.0,58,0.00,,,0.00,VWS V14.01,2013-05-14 04:50:00,
2013-05-14 06:51:00,58.2,43.5,29.97,NE,36,3.0,5.0,58,0.00,,,0.00,VWS V14.01,2013-05-14 04:51:00,
2013-05-14 06:56:00,58.6,43.9,29.97,NE,36,3.0,4.0,58,0.00,,,0.00,VWS V14.01,2013-05-14 04:56:00,
2013-05-14 07:00:00,59.2,44.0,29.98,NE,43,4.0,5.0,57,0.00,,,0.00,VWS V14.01,2013-05-14 05:00:00,
2013-05-14 07:01:00,59.1,43.9,29.97,NE,36,4.0,4.0,57,0.00,,,0.00,VWS V14.01,2013-05-14 05:01:00,
2013-05-14 07:06:00,59.3,44.1,29.97,NE,43,4.0,6.0,57,0.00,,,0.00,VWS V14.01,2013-05-14 05:06:00,
2013-05-14 07:10:00,59.4,44.2,29.97,NE,42,3.0,6.0,57,0.00,,,0.00,VWS V14.01,2013-05-14 05:10:00,
2013-05-14 07:11:00,59.4,44.2,29.98,NE,34,2.0,6.0,57,0.00,,,0.00,VWS V14.01,2013-05-14 05:11:00,
2013-05-14 07:16:00,59.2,44.5,29.98,NNE,32,6.0,7.0,58,0.00,,,0.00,VWS V14.01,2013-05-14 05:16:00,
2013-05-14 07:20:00,59.2,44.9,29.98,NE,37,5.0,7.0,59,0.00,,,0.00,VWS V14.01,2013-05-14 05:20:00,
2013-05-14 07:21:00,59.2,44.9,29.98,NNE,32,2.0,7.0,59,0.00,,,0.00,VWS V14.01,2013-05-14 05:21:00,
2013-05-14 07:26:00,59.3,45.0,29.98,NE,38,4.0,6.0,59,0.00,,,0.00,VWS V14.01,2013-05-14 05:26:00,
2013-05-14 07:30:00,59.9,45.1,29.98,NE,38,3.0,6.0,58,0.00,,,0.00,VWS V14.01,2013-05-14 05:30:00,
2013-05-14 07:31:00,59.7,44.9,29.98,NE,38,4.0,6.0,58,0.00,,,0.00,VWS V14.01,2013-05-14 05:31:00,
2013-05-14 07:36:00,60.1,45.7,29.98,NE,37,3.0,5.0,59,0.00,,,0.00,VWS V14.01,2013-05-14 05:36:00,
2013-05-14 07:40:00,60.6,46.2,29.98,NE,37,0.0,5.0,59,0.00,,,0.00,VWS V14.01,2013-05-14 05:40:00,
2013-05-14 07:41:00,60.4,46.0,29.98,NE,37,0.0,5.0,59,0.00,,,0.00,VWS V14.01,2013-05-14 05:41:00,
2013-05-14 07:46:00,61.0,46.6,29.98,NE,36,3.0,4.0,59,0.00,,,0.00,VWS V14.01,2013-05-14 05:46:00,
2013-05-14 07:50:00,61.7,45.9,29.98,NE,34,2.0,5.0,56,0.00,,,0.00,VWS V14.01,2013-05-14 05:50:00,
2013-05-14 07:51:00,61.6,45.8,29.98,NE,34,2.0,5.0,56,0.00,,,0.00,VWS V14.01,2013-05-14 05:51:00,
2013-05-14 07:56:00,62.2,47.3,29.98,NE,34,0.0,3.0,58,0.00,,,0.00,VWS V14.01,2013-05-14 05:56:00,
2013-05-14 08:00:00,63.2,48.7,29.98,NE,34,0.0,3.0,59,0.00,,,0.00,VWS V14.01,2013-05-14 06:00:00,
2013-05-14 08:01:00,63.0,48.0,29.98,NE,34,0.0,3.0,58,0.00,,,0.00,VWS V14.01,2013-05-14 06:01:00,
2013-05-14 08:06:00,63.6,48.1,29.98,NE,34,4.0,4.0,57,0.00,,,0.00,VWS V14.01,2013-05-14 06:06:00,
2013-05-14 08:10:00,63.5,46.1,29.98,NNE,28,4.0,6.0,53,0.00,,,0.00,VWS V14.01,2013-05-14 06:10:00,
2013-05-14 08:11:00,63.6,46.7,29.98,NE,34,2.0,5.0,54,0.00,,,0.00,VWS V14.01,2013-05-14 06:11:00,
2013-05-14 08:16:00,63.5,44.5,29.98,NNE,29,4.0,6.0,50,0.00,,,0.00,VWS V14.01,2013-05-14 06:16:00,
2013-05-14 08:20:00,63.8,45.9,29.98,NNE,28,3.0,6.0,52,0.00,,,0.00,VWS V14.01,2013-05-14 06:20:00,
2013-05-14 08:21:00,63.7,45.2,29.98,NNE,28,3.0,6.0,51,0.00,,,0.00,VWS V14.01,2013-05-14 06:21:00,
2013-05-14 08:26:00,64.3,45.8,29.99,NE,36,4.0,5.0,51,0.00,,,0.00,VWS V14.01,2013-05-14 06:26:00,
2013-05-14 08:30:00,64.1,46.1,29.98,NNE,32,3.0,5.0,52,0.00,,,0.00,VWS V14.01,2013-05-14 06:30:00,
2013-05-14 08:31:00,64.2,45.7,29.99,NNE,32,2.0,5.0,51,0.00,,,0.00,VWS V14.01,2013-05-14 06:31:00,
2013-05-14 08:36:00,64.1,46.6,29.98,NE,35,5.0,5.0,53,0.00,,,0.00,VWS V14.01,2013-05-14 06:36:00,
2013-05-14 08:40:00,63.8,46.9,29.98,NE,34,4.0,8.0,54,0.00,,,0.00,VWS V14.01,2013-05-14 06:40:00,
2013-05-14 08:41:00,63.8,46.8,29.98,NE,34,3.0,8.0,54,0.00,,,0.00,VWS V14.01,2013-05-14 06:41:00,
2013-05-14 08:46:00,63.8,46.8,29.98,NNE,16,4.0,8.0,54,0.00,,,0.00,VWS V14.01,2013-05-14 06:46:00,
2013-05-14 08:50:00,64.2,46.7,29.98,NNE,31,4.0,8.0,53,0.00,,,0.00,VWS V14.01,2013-05-14 06:50:00,
2013-05-14 08:51:00,64.1,46.6,29.98,NE,39,3.0,8.0,53,0.00,,,0.00,VWS V14.01,2013-05-14 06:51:00,
2013-05-14 08:56:00,64.6,46.6,29.98,NNE,27,2.0,7.0,52,0.00,,,0.00,VWS V14.01,2013-05-14 06:56:00,
2013-05-14 09:00:00,65.3,42.8,29.98,NE,51,5.0,10.0,44,0.00,,,0.00,VWS V14.01,2013-05-14 07:00:00,
2013-05-14 09:01:00,65.1,43.3,29.98,NE,55,4.0,10.0,45,0.00,,,0.00,VWS V14.01,2013-05-14 07:01:00,
2013-05-14 09:06:00,65.5,45.3,29.98,NE,47,7.0,8.0,48,0.00,,,0.00,VWS V14.01,2013-05-14 07:06:00,
2013-05-14 09:10:00,65.1,43.3,29.98,NNE,23,5.0,10.0,45,0.00,,,0.00,VWS V14.01,2013-05-14 07:10:00,
2013-05-14 09:11:00,65.1,43.3,29.98,NNE,22,7.0,10.0,45,0.00,,,0.00,VWS V14.01,2013-05-14 07:11:00,
2013-05-14 09:16:00,65.6,42.5,29.98,NNE,24,6.0,8.0,43,0.00,,,0.00,VWS V14.01,2013-05-14 07:16:00,
2013-05-14 09:20:00,65.8,43.3,29.98,NNE,28,4.0,10.0,44,0.00,,,0.00,VWS V14.01,2013-05-14 07:20:00,
2013-05-14 09:21:00,65.6,43.1,29.98,NNE,32,4.0,10.0,44,0.00,,,0.00,VWS V14.01,2013-05-14 07:21:00,
2013-05-14 09:26:00,66.2,43.1,29.98,NE,38,8.0,9.0,43,0.00,,,0.00,VWS V14.01,2013-05-14 07:26:00,
2013-05-14 09:30:00,66.8,44.2,29.98,NE,34,2.0,9.0,44,0.00,,,0.00,VWS V14.01,2013-05-14 07:30:00,
2013-05-14 09:31:00,66.6,42.8,29.98,ENE,61,5.0,9.0,42,0.00,,,0.00,VWS V14.01,2013-05-14 07:31:00,
2013-05-14 09:36:00,66.7,43.5,29.98,NNE,20,3.0,8.0,43,0.00,,,0.00,VWS V14.01,2013-05-14 07:36:00,
2013-05-14 09:40:00,67.7,42.5,29.98,ENE,65,1.0,8.0,40,0.00,,,0.00,VWS V14.01,2013-05-14 07:40:00,
2013-05-14 09:41:00,67.5,44.2,29.98,ENE,65,2.0,8.0,43,0.00,,,0.00,VWS V14.01,2013-05-14 07:41:00,
2013-05-14 09:46:00,68.3,45.0,29.98,ESE,104,2.0,3.0,43,0.00,,,0.00,VWS V14.01,2013-05-14 07:46:00,
2013-05-14 09:50:00,68.2,44.9,29.97,SE,142,2.0,3.0,43,0.00,,,0.00,VWS V14.01,2013-05-14 07:50:00,
2013-05-14 09:51:00,68.2,44.9,29.97,SE,142,0.0,3.0,43,0.00,,,0.00,VWS V14.01,2013-05-14 07:51:00,
2013-05-14 09:56:00,67.5,45.4,29.97,SSE,147,0.0,3.0,45,0.00,,,0.00,VWS V14.01,2013-05-14 07:56:00,
2013-05-14 10:00:00,67.5,46.0,29.97,WSW,246,6.0,6.0,46,0.00,,,0.00,VWS V14.01,2013-05-14 08:00:00,
2013-05-14 10:01:00,67.6,44.9,29.97,South,183,2.0,4.0,44,0.00,,,0.00,VWS V14.01,2013-05-14 08:01:00,
2013-05-14 10:06:00,66.0,44.7,29.97,SW,234,4.0,6.0,46,0.00,,,0.00,VWS V14.01,2013-05-14 08:06:00,
2013-05-14 10:10:00,66.0,44.7,29.97,WSW,238,5.0,6.0,46,0.00,,,0.00,VWS V14.01,2013-05-14 08:10:00,
2013-05-14 10:11:00,66.0,44.7,29.97,WSW,246,1.0,6.0,46,0.00,,,0.00,VWS V14.01,2013-05-14 08:11:00,
2013-05-14 10:16:00,66.3,43.8,29.97,WSW,238,3.0,5.0,44,0.00,,,0.00,VWS V14.01,2013-05-14 08:16:00,
2013-05-14 10:20:00,66.4,43.8,29.97,SW,220,3.0,7.0,44,0.00,,,0.00,VWS V14.01,2013-05-14 08:20:00,
2013-05-14 10:21:00,66.1,43.6,29.97,SW,220,2.0,7.0,44,0.00,,,0.00,VWS V14.01,2013-05-14 08:21:00,
2013-05-14 10:26:00,67.0,43.2,29.97,SSW,213,2.0,5.0,42,0.00,,,0.00,VWS V14.01,2013-05-14 08:26:00,
2013-05-14 10:30:00,67.2,44.0,29.97,SSW,196,5.0,7.0,43,0.00,,,0.00,VWS V14.01,2013-05-14 08:30:00,
2013-05-14 10:31:00,67.4,44.2,29.97,SSW,207,5.0,6.0,43,0.00,,,0.00,VWS V14.01,2013-05-14 08:31:00,
2013-05-14 10:36:00,67.0,44.4,29.97,SSW,192,2.0,7.0,44,0.00,,,0.00,VWS V14.01,2013-05-14 08:36:00,
2013-05-14 10:40:00,67.3,43.5,29.97,South,174,3.0,7.0,42,0.00,,,0.00,VWS V14.01,2013-05-14 08:40:00,
2013-05-14 10:41:00,67.2,44.0,29.97,South,178,2.0,7.0,43,0.00,,,0.00,VWS V14.01,2013-05-14 08:41:00,
2013-05-14 10:46:00,67.4,44.2,29.97,SSW,213,7.0,9.0,43,0.00,,,0.00,VWS V14.01,2013-05-14 08:46:00,
2013-05-14 10:50:00,66.9,46.6,29.97,WSW,238,4.0,10.0,48,0.00,,,0.00,VWS V14.01,2013-05-14 08:50:00,
2013-05-14 10:51:00,66.7,45.8,29.97,SW,234,2.0,10.0,47,0.00,,,0.00,VWS V14.01,2013-05-14 08:51:00,
2013-05-14 10:56:00,67.3,45.8,29.97,SW,225,8.0,8.0,46,0.00,,,0.00,VWS V14.01,2013-05-14 08:56:00,
2013-05-14 11:00:00,67.1,46.8,29.97,SSW,204,8.0,12.0,48,0.00,,,0.00,VWS V14.01,2013-05-14 09:00:00,
2013-05-14 11:01:00,66.9,45.5,29.97,SW,225,7.0,8.0,46,0.00,,,0.00,VWS V14.01,2013-05-14 09:01:00,
2013-05-14 11:06:00,66.2,48.1,29.97,South,178,2.0,11.0,52,0.00,,,0.00,VWS V14.01,2013-05-14 09:06:00,
2013-05-14 11:10:00,67.4,47.6,29.97,South,188,8.0,11.0,49,0.00,,,0.00,VWS V14.01,2013-05-14 09:10:00,
2013-05-14 11:11:00,67.2,48.5,29.97,South,177,6.0,11.0,51,0.00,,,0.00,VWS V14.01,2013-05-14 09:11:00,
2013-05-14 11:16:00,66.9,47.1,29.97,SSW,205,7.0,10.0,49,0.00,,,0.00,VWS V14.01,2013-05-14 09:16:00,
2013-05-14 11:20:00,67.4,50.2,29.97,WSW,244,6.0,10.0,54,0.00,,,0.00,VWS V14.01,2013-05-14 09:20:00,
2013-05-14 11:21:00,67.2,49.5,29.97,SW,215,5.0,10.0,53,0.00,,,0.00,VWS V14.01,2013-05-14 09:21:00,
2013-05-14 11:26:00,67.9,49.1,29.97,SW,215,8.0,10.0,51,0.00,,,0.00,VWS V14.01,2013-05-14 09:26:00,
2013-05-14 11:30:00,67.9,47.5,29.97,WSW,252,9.0,10.0,48,0.00,,,0.00,VWS V14.01,2013-05-14 09:30:00,
2013-05-14 11:31:00,67.8,48.5,29.97,West,264,6.0,10.0,50,0.00,,,0.00,VWS V14.01,2013-05-14 09:31:00,
2013-05-14 11:36:00,67.5,47.1,29.97,SW,229,4.0,11.0,48,0.00,,,0.00,VWS V14.01,2013-05-14 09:36:00,
2013-05-14 11:40:00,67.7,46.2,29.97,WSW,242,6.0,11.0,46,0.00,,,0.00,VWS V14.01,2013-05-14 09:40:00,
2013-05-14 11:41:00,67.6,46.1,29.97,SW,234,5.0,11.0,46,0.00,,,0.00,VWS V14.01,2013-05-14 09:41:00,
2013-05-14 11:46:00,68.4,45.0,29.97,WSW,244,4.0,9.0,43,0.00,,,0.00,VWS V14.01,2013-05-14 09:46:00,
2013-05-14 11:50:00,69.3,45.9,29.97,West,271,5.0,10.0,43,0.00,,,0.00,VWS V14.01,2013-05-14 09:50:00,
2013-05-14 11:51:00,69.2,45.2,29.97,WSW,253,8.0,10.0,42,0.00,,,0.00,VWS V14.01,2013-05-14 09:51:00,
2013-05-14 11:56:00,68.8,44.2,29.97,West,268,13.0,13.0,41,0.00,,,0.00,VWS V14.01,2013-05-14 09:56:00,
2013-05-14 12:00:00,68.6,44.0,29.97,WSW,243,7.0,14.0,41,0.00,,,0.00,VWS V14.01,2013-05-14 10:00:00,
2013-05-14 12:01:00,68.6,44.0,29.97,WSW,250,9.0,14.0,41,0.00,,,0.00,VWS V14.01,2013-05-14 10:01:00,
2013-05-14 12:06:00,68.2,47.2,29.97,SW,229,12.0,13.0,47,0.00,,,0.00,VWS V14.01,2013-05-14 10:06:00,
2013-05-14 12:10:00,68.1,43.5,29.96,SW,227,9.0,13.0,41,0.00,,,0.00,VWS V14.01,2013-05-14 10:10:00,
2013-05-14 12:11:00,68.1,44.2,29.96,WSW,247,9.0,13.0,42,0.00,,,0.00,VWS V14.01,2013-05-14 10:11:00,
2013-05-14 12:16:00,68.3,41.7,29.97,WSW,238,13.0,13.0,38,0.00,,,0.00,VWS V14.01,2013-05-14 10:16:00,
2013-05-14 12:20:00,68.6,42.0,29.96,WSW,249,7.0,13.0,38,0.00,,,0.00,VWS V14.01,2013-05-14 10:20:00,
2013-05-14 12:21:00,68.4,41.8,29.97,WSW,248,6.0,13.0,38,0.00,,,0.00,VWS V14.01,2013-05-14 10:21:00,
2013-05-14 12:26:00,68.8,40.8,29.97,West,265,11.0,14.0,36,0.00,,,0.00,VWS V14.01,2013-05-14 10:26:00,
2013-05-14 12:30:00,68.4,41.8,29.96,WSW,247,10.0,14.0,38,0.00,,,0.00,VWS V14.01,2013-05-14 10:30:00,
2013-05-14 12:31:00,68.3,41.7,29.96,WSW,251,10.0,14.0,38,0.00,,,0.00,VWS V14.01,2013-05-14 10:31:00,
2013-05-14 12:36:00,68.5,43.2,29.96,WNW,293,6.0,14.0,40,0.00,,,0.00,VWS V14.01,2013-05-14 10:36:00,
2013-05-14 12:40:00,68.6,45.2,29.96,WSW,254,7.0,14.0,43,0.00,,,0.00,VWS V14.01,2013-05-14 10:40:00,
2013-05-14 12:41:00,68.2,44.3,29.96,WSW,254,8.0,14.0,42,0.00,,,0.00,VWS V14.01,2013-05-14 10:41:00,
2013-05-14 12:46:00,68.8,44.2,29.96,West,262,9.0,11.0,41,0.00,,,0.00,VWS V14.01,2013-05-14 10:46:00,
2013-05-14 12:50:00,68.8,45.4,29.96,WSW,240,10.0,13.0,43,0.00,,,0.00,VWS V14.01,2013-05-14 10:50:00,
2013-05-14 12:51:00,68.7,44.7,29.96,SW,234,8.0,13.0,42,0.00,,,0.00,VWS V14.01,2013-05-14 10:51:00,
2013-05-14 12:56:00,68.6,45.2,29.96,WSW,249,12.0,12.0,43,0.00,,,0.00,VWS V14.01,2013-05-14 10:56:00,
2013-05-14 13:00:00,68.7,44.7,29.95,West,264,11.0,12.0,42,0.00,,,0.00,VWS V14.01,2013-05-14 11:00:00,
2013-05-14 13:01:00,68.7,44.7,29.95,SW,224,4.0,12.0,42,0.00,,,0.00,VWS V14.01,2013-05-14 11:01:00,
2013-05-14 13:06:00,68.5,45.8,29.95,WSW,248,13.0,15.0,44,0.00,,,0.00,VWS V14.01,2013-05-14 11:06:00,
2013-05-14 13:10:00,68.7,47.1,29.95,West,262,7.0,15.0,46,0.00,,,0.00,VWS V14.01,2013-05-14 11:10:00,
2013-05-14 13:11:00,68.5,47.5,29.95,WSW,240,8.0,15.0,47,0.00,,,0.00,VWS V14.01,2013-05-14 11:11:00,
2013-05-14 13:16:00,69.5,46.0,29.95,WSW,248,6.0,11.0,43,0.00,,,0.00,VWS V14.01,2013-05-14 11:16:00,
2013-05-14 13:20:00,70.3,46.8,29.95,West,267,9.0,12.0,43,0.00,,,0.00,VWS V14.01,2013-05-14 11:20:00,
2013-05-14 13:21:00,70.3,48.0,29.95,WNW,284,6.0,11.0,45,0.00,,,0.00,VWS V14.01,2013-05-14 11:21:00,
2013-05-14 13:26:00,70.9,47.3,29.95,WSW,244,7.0,9.0,43,0.00,,,0.00,VWS V14.01,2013-05-14 11:26:00,
2013-05-14 13:30:00,70.0,47.1,29.94,WNW,302,5.0,10.0,44,0.00,,,0.00,VWS V14.01,2013-05-14 11:30:00,
2013-05-14 13:31:00,70.1,46.6,29.94,NW,321,6.0,10.0,43,0.00,,,0.00,VWS V14.01,2013-05-14 11:31:00,
2013-05-14 13:36:00,70.6,48.8,29.94,West,260,8.0,10.0,46,0.00,,,0.00,VWS V14.01,2013-05-14 11:36:00,
2013-05-14 13:40:00,69.6,46.1,29.94,West,279,9.0,15.0,43,0.00,,,0.00,VWS V14.01,2013-05-14 11:40:00,
2013-05-14 13:41:00,69.8,46.3,29.94,WSW,237,11.0,15.0,43,0.00,,,0.00,VWS V14.01,2013-05-14 11:41:00,
2013-05-14 13:46:00,70.0,48.3,29.94,WNW,283,5.0,11.0,46,0.00,,,0.00,VWS V14.01,2013-05-14 11:46:00,
2013-05-14 13:50:00,70.4,48.7,29.94,WNW,288,7.0,11.0,46,0.00,,,0.00,VWS V14.01,2013-05-14 11:50:00,
2013-05-14 13:51:00,70.1,48.4,29.94,West,279,5.0,11.0,46,0.00,,,0.00,VWS V14.01,2013-05-14 11:51:00,
2013-05-14 13:56:00,70.1,47.8,29.93,West,273,12.0,12.0,45,0.00,,,0.00,VWS V14.01,2013-05-14 11:56:00,
2013-05-14 14:00:00,69.8,48.1,29.93,WSW,251,7.0,14.0,46,0.00,,,0.00,VWS V14.01,2013-05-14 12:00:00,
2013-05-14 14:01:00,69.7,48.6,29.93,WSW,248,10.0,14.0,47,0.00,,,0.00,VWS V14.01,2013-05-14 12:01:00,
2013-05-14 14:06:00,69.9,48.8,29.94,WNW,299,9.0,12.0,47,0.00,,,0.00,VWS V14.01,2013-05-14 12:06:00,
2013-05-14 14:10:00,69.7,48.6,29.94,WSW,254,10.0,14.0,47,0.00,,,0.00,VWS V14.01,2013-05-14 12:10:00,
2013-05-14 14:11:00,69.7,48.6,29.93,West,271,12.0,14.0,47,0.00,,,0.00,VWS V14.01,2013-05-14 12:11:00,
2013-05-14 14:16:00,70.0,48.9,29.93,West,266,3.0,14.0,47,0.00,,,0.00,VWS V14.01,2013-05-14 12:16:00,
2013-05-14 14:20:00,69.6,48.5,29.94,WSW,244,11.0,15.0,47,0.00,,,0.00,VWS V14.01,2013-05-14 12:20:00,
2013-05-14 14:21:00,69.6,47.9,29.94,West,276,9.0,15.0,46,0.00,,,0.00,VWS V14.01,2013-05-14 12:21:00,
2013-05-14 14:26:00,69.4,47.7,29.94,WSW,251,14.0,14.0,46,0.00,,,0.00,VWS V14.01,2013-05-14 12:26:00,
2013-05-14 14:30:00,69.0,48.0,29.94,WNW,288,8.0,17.0,47,0.00,,,0.00,VWS V14.01,2013-05-14 12:30:00,
2013-05-14 14:31:00,69.1,48.0,29.94,WSW,257,14.0,15.0,47,0.00,,,0.00,VWS V14.01,2013-05-14 12:31:00,
2013-05-14 14:36:00,69.4,48.9,29.94,WNW,290,15.0,16.0,48,0.00,,,0.00,VWS V14.01,2013-05-14 12:36:00,
2013-05-14 14:40:00,68.8,48.3,29.93,NW,325,5.0,16.0,48,0.00,,,0.00,VWS V14.01,2013-05-14 12:40:00,
2013-05-14 14:41:00,68.9,48.4,29.93,WNW,298,10.0,16.0,48,0.00,,,0.00,VWS V14.01,2013-05-14 12:41:00,
2013-05-14 14:46:00,69.2,49.2,29.93,NW,309,5.0,12.0,49,0.00,,,0.00,VWS V14.01,2013-05-14 12:46:00,
2013-05-14 14:50:00,68.6,48.2,29.94,WNW,292,10.0,14.0,48,0.00,,,0.00,VWS V14.01,2013-05-14 12:50:00,
2013-05-14 14:51:00,68.7,48.8,29.94,WNW,293,10.0,14.0,49,0.00,,,0.00,VWS V14.01,2013-05-14 12:51:00,
2013-05-14 14:56:00,68.9,50.0,29.94,West,268,7.0,11.0,51,0.00,,,0.00,VWS V14.01,2013-05-14 12:56:00,
2013-05-14 15:00:00,69.6,49.6,29.94,West,263,4.0,12.0,49,0.00,,,0.00,VWS V14.01,2013-05-14 13:00:00,
2013-05-14 15:01:00,69.5,50.1,29.94,WNW,284,8.0,12.0,50,0.00,,,0.00,VWS V14.01,2013-05-14 13:01:00,
2013-05-14 15:06:00,70.0,50.5,29.94,SW,228,8.0,11.0,50,0.00,,,0.00,VWS V14.01,2013-05-14 13:06:00,
2013-05-14 15:10:00,69.7,51.3,29.93,WSW,248,10.0,15.0,52,0.00,,,0.00,VWS V14.01,2013-05-14 13:10:00,
2013-05-14 15:11:00,69.8,51.9,29.93,West,274,11.0,14.0,53,0.00,,,0.00,VWS V14.01,2013-05-14 13:11:00,
2013-05-14 15:16:00,69.6,52.2,29.93,West,271,9.0,15.0,54,0.00,,,0.00,VWS V14.01,2013-05-14 13:16:00,
2013-05-14 15:20:00,69.0,52.7,29.93,West,263,14.0,17.0,56,0.00,,,0.00,VWS V14.01,2013-05-14 13:20:00,
2013-05-14 15:21:00,68.9,52.1,29.93,WSW,252,10.0,17.0,55,0.00,,,0.00,VWS V14.01,2013-05-14 13:21:00,
2013-05-14 15:26:00,69.0,53.2,29.93,West,259,9.0,15.0,57,0.00,,,0.00,VWS V14.01,2013-05-14 13:26:00,
2013-05-14 15:30:00,69.4,52.5,29.93,SW,232,7.0,15.0,55,0.00,,,0.00,VWS V14.01,2013-05-14 13:30:00,
2013-05-14 15:31:00,69.4,53.0,29.93,WSW,243,11.0,15.0,56,0.00,,,0.00,VWS V14.01,2013-05-14 13:31:00,
2013-05-14 15:36:00,69.3,52.5,29.93,West,269,9.0,13.0,55,0.00,,,0.00,VWS V14.01,2013-05-14 13:36:00,
2013-05-14 15:40:00,69.0,52.7,29.92,WSW,253,8.0,15.0,56,0.00,,,0.00,VWS V14.01,2013-05-14 13:40:00,
2013-05-14 15:41:00,68.9,52.6,29.93,WSW,238,10.0,15.0,56,0.00,,,0.00,VWS V14.01,2013-05-14 13:41:00,
2013-05-14 15:46:00,69.1,52.8,29.93,WSW,254,5.0,15.0,56,0.00,,,0.00,VWS V14.01,2013-05-14 13:46:00,
2013-05-14 15:50:00,68.9,52.6,29.92,WSW,252,12.0,15.0,56,0.00,,,0.00,VWS V14.01,2013-05-14 13:50:00,
2013-05-14 15:51:00,69.1,52.8,29.93,West,263,7.0,15.0,56,0.00,,,0.00,VWS V14.01,2013-05-14 13:51:00,
2013-05-14 15:56:00,69.0,52.2,29.93,West,278,10.0,17.0,55,0.00,,,0.00,VWS V14.01,2013-05-14 13:56:00,
2013-05-14 16:00:00,68.7,52.9,29.92,West,270,15.0,17.0,57,0.00,,,0.00,VWS V14.01,2013-05-14 14:00:00,
2013-05-14 16:01:00,68.5,52.2,29.92,WSW,257,9.0,17.0,56,0.00,,,0.00,VWS V14.01,2013-05-14 14:01:00,
2013-05-14 16:06:00,69.2,52.8,29.92,West,279,6.0,13.0,56,0.00,,,0.00,VWS V14.01,2013-05-14 14:06:00,
2013-05-14 16:10:00,69.2,51.4,29.92,West,276,11.0,15.0,53,0.00,,,0.00,VWS V14.01,2013-05-14 14:10:00,
2013-05-14 16:11:00,69.4,51.0,29.92,West,267,12.0,15.0,52,0.00,,,0.00,VWS V14.01,2013-05-14 14:11:00,
2013-05-14 16:16:00,69.4,52.0,29.92,West,271,8.0,16.0,54,0.00,,,0.00,VWS V14.01,2013-05-14 14:16:00,
2013-05-14 16:20:00,69.1,53.7,29.92,West,268,12.0,16.0,58,0.00,,,0.00,VWS V14.01,2013-05-14 14:20:00,
2013-05-14 16:21:00,69.2,53.3,29.92,WSW,253,13.0,16.0,57,0.00,,,0.00,VWS V14.01,2013-05-14 14:21:00,
2013-05-14 16:26:00,68.9,54.5,29.92,WNW,286,7.0,13.0,60,0.00,,,0.00,VWS V14.01,2013-05-14 14:26:00,
2013-05-14 16:30:00,69.6,55.6,29.92,NW,321,10.0,13.0,61,0.00,,,0.00,VWS V14.01,2013-05-14 14:30:00,
2013-05-14 16:31:00,69.4,55.4,29.92,West,263,3.0,13.0,61,0.00,,,0.00,VWS V14.01,2013-05-14 14:31:00,
2013-05-14 16:36:00,69.3,54.4,29.92,WSW,252,7.0,13.0,59,0.00,,,0.00,VWS V14.01,2013-05-14 14:36:00,
2013-05-14 16:40:00,69.6,54.7,29.92,West,271,5.0,13.0,59,0.00,,,0.00,VWS V14.01,2013-05-14 14:40:00,
2013-05-14 16:41:00,69.4,54.9,29.92,WNW,287,2.0,13.0,60,0.00,,,0.00,VWS V14.01,2013-05-14 14:41:00,
2013-05-14 16:46:00,69.3,54.8,29.92,SW,236,5.0,15.0,60,0.00,,,0.00,VWS V14.01,2013-05-14 14:46:00,
2013-05-14 16:50:00,69.3,54.4,29.92,WNW,295,6.0,15.0,59,0.00,,,0.00,VWS V14.01,2013-05-14 14:50:00,
2013-05-14 16:51:00,69.1,54.2,29.92,West,281,6.0,15.0,59,0.00,,,0.00,VWS V14.01,2013-05-14 14:51:00,
2013-05-14 16:56:00,68.5,53.2,29.92,WNW,293,10.0,15.0,58,0.00,,,0.00,VWS V14.01,2013-05-14 14:56:00,
2013-05-14 17:00:00,68.7,54.3,29.91,West,261,7.0,15.0,60,0.00,,,0.00,VWS V14.01,2013-05-14 15:00:00,
2013-05-14 17:01:00,68.8,54.8,29.91,West,261,10.0,15.0,61,0.00,,,0.00,VWS V14.01,2013-05-14 15:01:00,
2013-05-14 17:06:00,68.2,54.2,29.91,WNW,289,3.0,13.0,61,0.00,,,0.00,VWS V14.01,2013-05-14 15:06:00,
2013-05-14 17:10:00,68.3,53.9,29.91,WSW,258,5.0,13.0,60,0.00,,,0.00,VWS V14.01,2013-05-14 15:10:00,
2013-05-14 17:11:00,68.2,53.8,29.91,West,277,8.0,13.0,60,0.00,,,0.00,VWS V14.01,2013-05-14 15:11:00,
2013-05-14 17:16:00,68.4,54.0,29.91,West,269,6.0,12.0,60,0.00,,,0.00,VWS V14.01,2013-05-14 15:16:00,
2013-05-14 17:20:00,69.3,54.8,29.91,WNW,283,6.0,12.0,60,0.00,,,0.00,VWS V14.01,2013-05-14 15:20:00,
2013-05-14 17:21:00,69.2,55.2,29.91,WSW,238,2.0,12.0,61,0.00,,,0.00,VWS V14.01,2013-05-14 15:21:00,
2013-05-14 17:26:00,68.8,53.9,29.91,WNW,292,8.0,12.0,59,0.00,,,0.00,VWS V14.01,2013-05-14 15:26:00,
2013-05-14 17:30:00,68.6,54.2,29.91,NNW,336,3.0,12.0,60,0.00,,,0.00,VWS V14.01,2013-05-14 15:30:00,
2013-05-14 17:31:00,68.7,54.3,29.91,WNW,298,9.0,12.0,60,0.00,,,0.00,VWS V14.01,2013-05-14 15:31:00,
2013-05-14 17:36:00,69.1,54.7,29.91,West,275,3.0,11.0,60,0.00,,,0.00,VWS V14.01,2013-05-14 15:36:00,
2013-05-14 17:40:00,68.8,53.4,29.91,West,277,8.0,14.0,58,0.00,,,0.00,VWS V14.01,2013-05-14 15:40:00,
2013-05-14 17:41:00,69.1,54.2,29.91,West,281,7.0,14.0,59,0.00,,,0.00,VWS V14.01,2013-05-14 15:41:00,
2013-05-14 17:46:00,68.9,54.5,29.91,NNW,338,4.0,8.0,60,0.00,,,0.00,VWS V14.01,2013-05-14 15:46:00,
2013-05-14 17:50:00,68.7,53.8,29.91,WSW,251,8.0,10.0,59,0.00,,,0.00,VWS V14.01,2013-05-14 15:50:00,
2013-05-14 17:51:00,68.6,53.2,29.91,WNW,295,6.0,10.0,58,0.00,,,0.00,VWS V14.01,2013-05-14 15:51:00,
2013-05-14 17:56:00,68.9,54.5,29.91,West,273,7.0,11.0,60,0.00,,,0.00,VWS V14.01,2013-05-14 15:56:00,
2013-05-14 18:00:00,68.6,55.5,29.91,WNW,294,9.0,11.0,63,0.00,,,0.00,VWS V14.01,2013-05-14 16:00:00,
2013-05-14 18:01:00,68.6,55.5,29.91,West,271,7.0,11.0,63,0.00,,,0.00,VWS V14.01,2013-05-14 16:01:00,
2013-05-14 18:06:00,68.5,55.0,29.91,WNW,291,9.0,10.0,62,0.00,,,0.00,VWS V14.01,2013-05-14 16:06:00,
2013-05-14 18:10:00,67.9,54.8,29.91,West,271,10.0,11.0,63,0.00,,,0.00,VWS V14.01,2013-05-14 16:10:00,
2013-05-14 18:11:00,68.3,55.7,29.91,West,271,11.0,11.0,64,0.00,,,0.00,VWS V14.01,2013-05-14 16:11:00,
2013-05-14 18:16:00,67.9,55.3,29.91,WNW,293,8.0,10.0,64,0.00,,,0.00,VWS V14.01,2013-05-14 16:16:00,
2013-05-14 18:20:00,68.2,56.0,29.91,NW,309,7.0,12.0,65,0.00,,,0.00,VWS V14.01,2013-05-14 16:20:00,
2013-05-14 18:21:00,68.2,55.6,29.91,WNW,293,6.0,12.0,64,0.00,,,0.00,VWS V14.01,2013-05-14 16:21:00,
2013-05-14 18:26:00,68.2,56.4,29.91,WNW,302,6.0,8.0,66,0.00,,,0.00,VWS V14.01,2013-05-14 16:26:00,
2013-05-14 18:30:00,67.8,56.5,29.91,WNW,290,3.0,10.0,67,0.00,,,0.00,VWS V14.01,2013-05-14 16:30:00,
2013-05-14 18:31:00,67.8,56.5,29.91,WNW,285,1.0,10.0,67,0.00,,,0.00,VWS V14.01,2013-05-14 16:31:00,
2013-05-14 18:36:00,67.6,56.7,29.91,WNW,300,1.0,9.0,68,0.00,,,0.00,VWS V14.01,2013-05-14 16:36:00,
2013-05-14 18:40:00,67.8,56.9,29.91,West,273,3.0,9.0,68,0.00,,,0.00,VWS V14.01,2013-05-14 16:40:00,
2013-05-14 18:41:00,67.8,56.9,29.91,WNW,290,2.0,9.0,68,0.00,,,0.00,VWS V14.01,2013-05-14 16:41:00,
2013-05-14 18:46:00,67.9,57.4,29.91,WNW,300,5.0,10.0,69,0.00,,,0.00,VWS V14.01,2013-05-14 16:46:00,
2013-05-14 18:50:00,67.5,57.0,29.91,WNW,301,6.0,10.0,69,0.00,,,0.00,VWS V14.01,2013-05-14 16:50:00,
2013-05-14 18:51:00,67.6,56.7,29.91,WNW,289,6.0,10.0,68,0.00,,,0.00,VWS V14.01,2013-05-14 16:51:00,
2013-05-14 18:56:00,67.0,56.1,29.91,WNW,290,9.0,13.0,68,0.00,,,0.00,VWS V14.01,2013-05-14 16:56:00,
2013-05-14 19:00:00,67.1,57.4,29.91,NW,309,9.0,13.0,71,0.00,,,0.00,VWS V14.01,2013-05-14 17:00:00,
2013-05-14 19:01:00,67.1,57.0,29.91,NW,309,3.0,13.0,70,0.00,,,0.00,VWS V14.01,2013-05-14 17:01:00,
2013-05-14 19:06:00,66.8,57.5,29.92,NW,315,3.0,10.0,72,0.00,,,0.00,VWS V14.01,2013-05-14 17:06:00,
2013-05-14 19:10:00,66.6,57.3,29.91,WNW,286,8.0,10.0,72,0.00,,,0.00,VWS V14.01,2013-05-14 17:10:00,
2013-05-14 19:11:00,66.5,57.2,29.91,WNW,284,4.0,10.0,72,0.00,,,0.00,VWS V14.01,2013-05-14 17:11:00,
2013-05-14 19:16:00,66.4,57.1,29.91,NW,316,6.0,10.0,72,0.00,,,0.00,VWS V14.01,2013-05-14 17:16:00,
2013-05-14 19:20:00,66.3,57.4,29.91,WNW,288,5.0,10.0,73,0.00,,,0.00,VWS V14.01,2013-05-14 17:20:00,
2013-05-14 19:21:00,66.3,57.4,29.91,West,279,6.0,10.0,73,0.00,,,0.00,VWS V14.01,2013-05-14 17:21:00,
2013-05-14 19:26:00,66.3,57.4,29.91,WNW,292,7.0,7.0,73,0.00,,,0.00,VWS V14.01,2013-05-14 17:26:00,
2013-05-14 19:30:00,66.0,57.1,29.91,NW,325,1.0,7.0,73,0.00,,,0.00,VWS V14.01,2013-05-14 17:30:00,
2013-05-14 19:31:00,66.0,57.1,29.90,NW,325,3.0,7.0,73,0.00,,,0.00,VWS V14.01,2013-05-14 17:31:00,
2013-05-14 19:36:00,65.9,57.0,29.90,NW,325,3.0,5.0,73,0.00,,,0.00,VWS V14.01,2013-05-14 17:36:00,
2013-05-14 19:40:00,65.5,56.6,29.90,NW,306,6.0,7.0,73,0.00,,,0.00,VWS V14.01,2013-05-14 17:40:00,
2013-05-14 19:41:00,65.6,56.7,29.90,WNW,296,2.0,7.0,73,0.00,,,0.00,VWS V14.01,2013-05-14 17:41:00,
2013-05-14 19:46:00,65.2,56.7,29.90,WNW,296,2.0,9.0,74,0.00,,,0.00,VWS V14.01,2013-05-14 17:46:00,
2013-05-14 19:50:00,64.9,56.4,29.90,NW,315,5.0,9.0,74,0.00,,,0.00,VWS V14.01,2013-05-14 17:50:00,
2013-05-14 19:51:00,65.0,56.5,29.90,NW,312,2.0,9.0,74,0.00,,,0.00,VWS V14.01,2013-05-14 17:51:00,
2013-05-14 19:56:00,64.7,56.2,29.90,NW,315,4.0,6.0,74,0.00,,,0.00,VWS V14.01,2013-05-14 17:56:00,
2013-05-14 20:00:00,64.5,56.4,29.90,NNW,329,2.0,6.0,75,0.00,,,0.00,VWS V14.01,2013-05-14 18:00:00,
2013-05-14 20:01:00,64.6,56.5,29.90,NNW,329,4.0,6.0,75,0.00,,,0.00,VWS V14.01,2013-05-14 18:01:00,
2013-05-14 20:06:00,64.3,56.2,29.90,NNW,329,2.0,5.0,75,0.00,,,0.00,VWS V14.01,2013-05-14 18:06:00,
2013-05-14 20:10:00,64.1,56.0,29.90,NNW,329,4.0,5.0,75,0.00,,,0.00,VWS V14.01,2013-05-14 18:10:00,
2013-05-14 20:11:00,64.2,56.1,29.90,NNW,329,1.0,5.0,75,0.00,,,0.00,VWS V14.01,2013-05-14 18:11:00,
2013-05-14 20:16:00,64.0,56.3,29.90,NNW,330,0.0,4.0,76,0.00,,,0.00,VWS V14.01,2013-05-14 18:16:00,
2013-05-14 20:20:00,64.0,55.9,29.89,NNW,343,3.0,6.0,75,0.00,,,0.00,VWS V14.01,2013-05-14 18:20:00,
2013-05-14 20:21:00,64.0,55.9,29.90,NNW,343,2.0,6.0,75,0.00,,,0.00,VWS V14.01,2013-05-14 18:21:00,
2013-05-14 20:26:00,63.9,56.2,29.90,NNW,343,4.0,5.0,76,0.00,,,0.00,VWS V14.01,2013-05-14 18:26:00,
2013-05-14 20:30:00,63.7,56.0,29.90,NNW,343,3.0,5.0,76,0.00,,,0.00,VWS V14.01,2013-05-14 18:30:00,
2013-05-14 20:31:00,63.7,56.0,29.90,NNW,343,1.0,5.0,76,0.00,,,0.00,VWS V14.01,2013-05-14 18:31:00,
2013-05-14 20:36:00,63.5,55.8,29.90,NNW,343,3.0,4.0,76,0.00,,,0.00,VWS V14.01,2013-05-14 18:36:00,
2013-05-14 20:40:00,63.3,56.0,29.90,NNW,344,3.0,4.0,77,0.00,,,0.00,VWS V14.01,2013-05-14 18:40:00,
2013-05-14 20:41:00,63.3,56.0,29.90,NNW,344,3.0,4.0,77,0.00,,,0.00,VWS V14.01,2013-05-14 18:41:00,
2013-05-14 20:46:00,63.1,55.8,29.90,NNW,344,3.0,4.0,77,0.00,,,0.00,VWS V14.01,2013-05-14 18:46:00,
2013-05-14 20:50:00,63.0,56.0,29.89,NNW,344,1.0,4.0,78,0.00,,,0.00,VWS V14.01,2013-05-14 18:50:00,
2013-05-14 20:51:00,63.0,56.0,29.89,NNW,344,1.0,4.0,78,0.00,,,0.00,VWS V14.01,2013-05-14 18:51:00,
2013-05-14 20:56:00,63.0,56.4,29.89,NNW,344,3.0,3.0,79,0.00,,,0.00,VWS V14.01,2013-05-14 18:56:00,
2013-05-14 21:00:00,63.2,56.6,29.89,NNW,344,2.0,3.0,79,0.00,,,0.00,VWS V14.01,2013-05-14 19:00:00,
2013-05-14 21:01:00,63.1,56.5,29.89,NNW,344,1.0,3.0,79,0.00,,,0.00,VWS V14.01,2013-05-14 19:01:00,
2013-05-14 21:06:00,63.3,56.7,29.89,NNW,344,0.0,2.0,79,0.00,,,0.00,VWS V14.01,2013-05-14 19:06:00,
2013-05-14 21:10:00,62.9,56.3,29.89,NNW,344,0.0,3.0,79,0.00,,,0.00,VWS V14.01,2013-05-14 19:10:00,
2013-05-14 21:11:00,63.0,56.4,29.89,NNW,344,2.0,3.0,79,0.00,,,0.00,VWS V14.01,2013-05-14 19:11:00,
2013-05-14 21:16:00,62.7,56.1,29.89,NNW,344,0.0,3.0,79,0.00,,,0.00,VWS V14.01,2013-05-14 19:16:00,
2013-05-14 21:20:00,62.2,56.0,29.90,NNW,344,2.0,3.0,80,0.00,,,0.00,VWS V14.01,2013-05-14 19:20:00,
2013-05-14 21:21:00,62.3,56.1,29.90,NNW,344,2.0,3.0,80,0.00,,,0.00,VWS V14.01,2013-05-14 19:21:00,
2013-05-14 21:26:00,62.0,55.8,29.90,NNW,344,0.0,2.0,80,0.00,,,0.00,VWS V14.01,2013-05-14 19:26:00,
2013-05-14 21:30:00,61.9,56.0,29.91,NNW,344,4.0,4.0,81,0.00,,,0.00,VWS V14.01,2013-05-14 19:30:00,
2013-05-14 21:31:00,61.9,56.0,29.90,NNW,344,2.0,3.0,81,0.00,,,0.00,VWS V14.01,2013-05-14 19:31:00,
2013-05-14 21:36:00,62.0,55.8,29.90,NNW,344,2.0,4.0,80,0.00,,,0.00,VWS V14.01,2013-05-14 19:36:00,
2013-05-14 21:40:00,62.1,55.9,29.90,NNW,344,3.0,4.0,80,0.00,,,0.00,VWS V14.01,2013-05-14 19:40:00,
2013-05-14 21:41:00,62.1,55.9,29.91,NNW,344,2.0,4.0,80,0.00,,,0.00,VWS V14.01,2013-05-14 19:41:00,
2013-05-14 21:46:00,62.0,55.8,29.90,NNW,344,2.0,4.0,80,0.00,,,0.00,VWS V14.01,2013-05-14 19:46:00,
2013-05-14 21:50:00,62.1,55.5,29.90,NNW,344,1.0,4.0,79,0.00,,,0.00,VWS V14.01,2013-05-14 19:50:00,
2013-05-14 21:51:00,62.1,55.5,29.90,NNW,344,3.0,4.0,79,0.00,,,0.00,VWS V14.01,2013-05-14 19:51:00,
2013-05-14 21:56:00,62.1,55.2,29.90,NNW,344,2.0,2.0,78,0.00,,,0.00,VWS V14.01,2013-05-14 19:56:00,
2013-05-14 22:00:00,62.2,54.9,29.90,NNW,344,1.0,2.0,77,0.00,,,0.00,VWS V14.01,2013-05-14 20:00:00,
2013-05-14 22:01:00,62.2,54.9,29.90,NNW,344,2.0,2.0,77,0.00,,,0.00,VWS V14.01,2013-05-14 20:01:00,
2013-05-14 22:06:00,62.4,55.1,29.90,NNW,344,1.0,2.0,77,0.00,,,0.00,VWS V14.01,2013-05-14 20:06:00,
2013-05-14 22:10:00,62.4,55.1,29.90,NNW,344,1.0,2.0,77,0.00,,,0.00,VWS V14.01,2013-05-14 20:10:00,
2013-05-14 22:11:00,62.4,55.1,29.90,NNW,344,1.0,2.0,77,0.00,,,0.00,VWS V14.01,2013-05-14 20:11:00,
2013-05-14 22:16:00,62.6,55.7,29.90,NNW,344,1.0,2.0,78,0.00,,,0.00,VWS V14.01,2013-05-14 20:16:00,
2013-05-14 22:20:00,62.6,55.7,29.90,NNW,344,2.0,2.0,78,0.00,,,0.00,VWS V14.01,2013-05-14 20:20:00,
2013-05-14 22:21:00,62.6,55.7,29.90,NNW,344,2.0,2.0,78,0.00,,,0.00,VWS V14.01,2013-05-14 20:21:00,
2013-05-14 22:26:00,62.6,55.7,29.89,NNW,344,1.0,2.0,78,0.00,,,0.00,VWS V14.01,2013-05-14 20:26:00,
2013-05-14 22:30:00,62.5,55.2,29.89,NNW,344,2.0,2.0,77,0.00,,,0.00,VWS V14.01,2013-05-14 20:30:00,
2013-05-14 22:31:00,62.6,55.3,29.89,NNW,344,2.0,2.0,77,0.00,,,0.00,VWS V14.01,2013-05-14 20:31:00,
2013-05-14 22:36:00,62.4,55.1,29.89,NNW,344,1.0,3.0,77,0.00,,,0.00,VWS V14.01,2013-05-14 20:36:00,
2013-05-14 22:40:00,62.2,54.2,29.89,NNW,344,2.0,3.0,75,0.00,,,0.00,VWS V14.01,2013-05-14 20:40:00,
2013-05-14 22:41:00,62.2,54.5,29.89,NNW,344,2.0,3.0,76,0.00,,,0.00,VWS V14.01,2013-05-14 20:41:00,
2013-05-14 22:46:00,62.2,53.8,29.89,NNW,344,2.0,2.0,74,0.00,,,0.00,VWS V14.01,2013-05-14 20:46:00,
2013-05-14 22:50:00,62.2,52.7,29.89,NNW,344,1.0,2.0,71,0.00,,,0.00,VWS V14.01,2013-05-14 20:50:00,
2013-05-14 22:51:00,62.2,53.1,29.89,NNW,344,1.0,2.0,72,0.00,,,0.00,VWS V14.01,2013-05-14 20:51:00,
2013-05-14 22:56:00,62.4,52.5,29.89,NNW,344,1.0,2.0,70,0.00,,,0.00,VWS V14.01,2013-05-14 20:56:00,
2013-05-14 23:00:00,62.2,51.9,29.89,NNW,344,2.0,2.0,69,0.00,,,0.00,VWS V14.01,2013-05-14 21:00:00,
2013-05-14 23:01:00,62.3,52.0,29.89,NNW,344,2.0,2.0,69,0.00,,,0.00,VWS V14.01,2013-05-14 21:01:00,
2013-05-14 23:06:00,62.2,51.9,29.89,NNW,344,1.0,2.0,69,0.00,,,0.00,VWS V14.01,2013-05-14 21:06:00,
2013-05-14 23:10:00,62.2,51.9,29.89,NNW,344,0.0,2.0,69,0.00,,,0.00,VWS V14.01,2013-05-14 21:10:00,
2013-05-14 23:11:00,62.2,51.9,29.89,NNW,344,0.0,2.0,69,0.00,,,0.00,VWS V14.01,2013-05-14 21:11:00,
2013-05-14 23:16:00,62.4,52.5,29.89,NNW,344,0.0,0.0,70,0.00,,,0.00,VWS V14.01,2013-05-14 21:16:00,
2013-05-14 23:20:00,62.5,52.6,29.89,NNW,344,0.0,0.0,70,0.00,,,0.00,VWS V14.01,2013-05-14 21:20:00,
2013-05-14 23:21:00,62.5,52.6,29.89,NNW,344,0.0,0.0,70,0.00,,,0.00,VWS V14.01,2013-05-14 21:21:00,
2013-05-14 23:26:00,62.3,52.4,29.89,NNW,344,0.0,0.0,70,0.00,,,0.00,VWS V14.01,2013-05-14 21:26:00,
2013-05-14 23:30:00,62.4,52.9,29.89,NNW,344,0.0,0.0,71,0.00,,,0.00,VWS V14.01,2013-05-14 21:30:00,
2013-05-14 23:31:00,62.3,52.8,29.89,NNW,344,0.0,0.0,71,0.00,,,0.00,VWS V14.01,2013-05-14 21:31:00,
2013-05-14 23:36:00,62.5,53.0,29.89,NNW,344,0.0,0.0,71,0.00,,,0.00,VWS V14.01,2013-05-14 21:36:00,
2013-05-14 23:40:00,62.5,53.0,29.89,NNW,344,0.0,0.0,71,0.00,,,0.00,VWS V14.01,2013-05-14 21:40:00,
2013-05-14 23:41:00,62.6,53.1,29.89,NNW,344,0.0,0.0,71,0.00,,,0.00,VWS V14.01,2013-05-14 21:41:00,
2013-05-14 23:46:00,62.4,52.9,29.89,NNW,344,0.0,0.0,71,0.00,,,0.00,VWS V14.01,2013-05-14 21:46:00,
2013-05-14 23:50:00,62.2,53.1,29.89,NNW,344,0.0,0.0,72,0.00,,,0.00,VWS V14.01,2013-05-14 21:50:00,
2013-05-14 23:51:00,62.3,53.2,29.89,NNW,344,0.0,0.0,72,0.00,,,0.00,VWS V14.01,2013-05-14 21:51:00,
2013-05-14 23:56:00,62.0,53.3,29.89,NNW,344,0.0,0.0,73,0.00,,,0.00,VWS V14.01,2013-05-14 21:56:00,